createdAt,value
2023-05-05T00:00:27.256Z,242.97
2023-05-05T00:01:27.264Z,242.76
2023-05-05T00:02:27.460Z,243.31
2023-05-05T00:03:28.070Z,244.17
2023-05-05T00:04:27.348Z,244.03
2023-05-05T00:05:27.340Z,242.56
2023-05-05T00:06:27.391Z,241.85
2023-05-05T00:07:27.562Z,242.09
2023-05-05T00:08:27.559Z,242.16
2023-05-05T00:09:27.611Z,241.60
2023-05-05T00:10:28.597Z,238.82
2023-05-05T00:11:27.755Z,236.80
2023-05-05T00:12:27.803Z,234.81
2023-05-05T00:13:27.854Z,238.65
2023-05-05T00:14:27.919Z,244.59
2023-05-05T00:15:28.020Z,249.53
2023-05-05T00:16:28.126Z,247.82
2023-05-05T00:17:28.155Z,247.54
2023-05-05T00:18:30.042Z,248.73
2023-05-05T00:19:28.271Z,250.00
2023-05-05T00:20:28.385Z,250.00
2023-05-05T00:21:28.482Z,249.64
2023-05-05T00:22:28.531Z,248.40
2023-05-05T00:23:29.571Z,248.79
2023-05-05T00:24:28.618Z,248.58
2023-05-05T00:25:28.694Z,248.34
2023-05-05T00:26:29.494Z,248.36
2023-05-05T00:27:28.824Z,248.59
2023-05-05T00:28:28.796Z,249.26
2023-05-05T00:29:29.539Z,249.42
2023-05-05T00:30:28.956Z,249.07
2023-05-05T00:31:29.685Z,247.44
2023-05-05T00:32:28.942Z,248.30
2023-05-05T00:33:28.906Z,249.92
2023-05-05T00:34:28.968Z,250.00
2023-05-05T00:35:28.923Z,249.76
2023-05-05T00:36:28.945Z,250.00
2023-05-05T00:37:28.958Z,249.06
2023-05-05T00:38:29.042Z,248.44
2023-05-05T00:39:29.003Z,248.20
2023-05-05T00:40:29.023Z,239.07
2023-05-05T00:41:30.146Z,234.33
2023-05-05T00:42:29.099Z,233.90
2023-05-05T00:43:29.074Z,232.41
2023-05-05T00:44:29.109Z,231.32
2023-05-05T00:45:29.204Z,231.66
2023-05-05T00:46:29.250Z,232.41
2023-05-05T00:47:29.347Z,233.55
2023-05-05T00:48:29.220Z,233.48
2023-05-05T00:49:29.319Z,232.96
2023-05-05T00:50:29.356Z,232.68
2023-05-05T00:51:30.363Z,232.36
2023-05-05T00:52:29.263Z,231.84
2023-05-05T00:53:30.086Z,232.87
2023-05-05T00:54:30.130Z,235.77
2023-05-05T00:55:30.110Z,239.21
2023-05-05T00:56:29.479Z,242.19
2023-05-05T00:57:29.540Z,243.68
2023-05-05T00:58:30.515Z,241.88
2023-05-05T00:59:29.674Z,239.99
2023-05-05T01:00:29.608Z,239.80
2023-05-05T01:01:30.537Z,237.62
2023-05-05T01:02:30.119Z,236.49
2023-05-05T01:03:29.895Z,235.85
2023-05-05T01:04:36.515Z,232.65
2023-05-05T01:05:29.855Z,232.65
2023-05-05T01:06:29.893Z,232.59
2023-05-05T01:07:29.892Z,232.66
2023-05-05T01:08:31.636Z,232.20
2023-05-05T01:09:29.896Z,227.53
2023-05-05T01:10:29.942Z,224.76
2023-05-05T01:11:29.915Z,224.91
2023-05-05T01:12:30.531Z,226.30
2023-05-05T01:13:31.555Z,225.35
2023-05-05T01:14:29.995Z,223.93
2023-05-05T01:15:29.999Z,225.06
2023-05-05T01:16:30.110Z,228.38
2023-05-05T01:17:30.085Z,232.59
2023-05-05T01:18:30.093Z,233.97
2023-05-05T01:19:30.086Z,233.52
2023-05-05T01:20:30.126Z,234.50
2023-05-05T01:21:31.044Z,236.59
2023-05-05T01:22:30.484Z,236.59
2023-05-05T01:23:30.232Z,235.96
2023-05-05T01:24:30.196Z,237.10
2023-05-05T01:25:30.354Z,239.14
2023-05-05T01:26:30.439Z,241.02
2023-05-05T01:27:30.318Z,241.10
2023-05-05T01:28:30.451Z,241.37
2023-05-05T01:29:35.126Z,242.04
2023-05-05T01:30:30.433Z,241.17
2023-05-05T01:31:30.579Z,241.45
2023-05-05T01:32:30.916Z,241.34
2023-05-05T01:33:31.054Z,238.63
2023-05-05T01:34:30.600Z,236.76
2023-05-05T01:35:31.605Z,235.71
2023-05-05T01:36:30.527Z,235.76
2023-05-05T01:37:30.663Z,234.36
2023-05-05T01:38:31.567Z,234.79
2023-05-05T01:39:30.627Z,233.56
2023-05-05T01:40:31.617Z,232.43
2023-05-05T01:41:30.684Z,233.65
2023-05-05T01:42:30.819Z,232.67
2023-05-05T01:43:30.699Z,232.70
2023-05-05T01:44:31.578Z,233.01
2023-05-05T01:45:30.814Z,233.04
2023-05-05T01:46:30.700Z,232.72
2023-05-05T01:47:30.809Z,232.81
2023-05-05T01:48:31.523Z,232.34
2023-05-05T01:49:32.520Z,234.12
2023-05-05T01:50:31.501Z,233.49
2023-05-05T01:51:31.052Z,233.52
2023-05-05T01:52:31.117Z,233.72
2023-05-05T01:53:31.341Z,234.26
2023-05-05T01:54:31.171Z,234.75
2023-05-05T01:55:31.387Z,233.99
2023-05-05T01:56:31.174Z,233.97
2023-05-05T01:57:31.352Z,232.48
2023-05-05T01:58:31.400Z,231.81
2023-05-05T01:59:31.501Z,232.40
2023-05-05T02:00:33.030Z,232.43
2023-05-05T02:01:31.595Z,231.90
2023-05-05T02:02:31.614Z,228.14
2023-05-05T02:03:31.510Z,228.09
2023-05-05T02:04:31.583Z,228.27
2023-05-05T02:05:31.527Z,228.30
2023-05-05T02:06:31.781Z,227.90
2023-05-05T02:07:31.574Z,227.96
2023-05-05T02:08:31.599Z,227.58
2023-05-05T02:09:31.664Z,227.58
2023-05-05T02:10:31.676Z,227.20
2023-05-05T02:11:32.523Z,227.99
2023-05-05T02:12:31.888Z,226.17
2023-05-05T02:13:31.826Z,225.77
2023-05-05T02:14:31.908Z,226.32
2023-05-05T02:15:31.969Z,227.84
2023-05-05T02:16:33.015Z,227.57
2023-05-05T02:17:32.163Z,228.49
2023-05-05T02:18:32.139Z,228.77
2023-05-05T02:19:32.301Z,227.92
2023-05-05T02:20:33.096Z,227.55
2023-05-05T02:21:33.017Z,221.44
2023-05-05T02:22:32.421Z,218.43
2023-05-05T02:23:34.457Z,215.45
2023-05-05T02:24:33.532Z,210.80
2023-05-05T02:25:32.586Z,206.36
2023-05-05T02:26:32.709Z,203.51
2023-05-05T02:27:33.070Z,202.00
2023-05-05T02:28:33.531Z,200.90
2023-05-05T02:29:32.856Z,200.51
2023-05-05T02:30:33.600Z,199.12
2023-05-05T02:31:33.012Z,199.15
2023-05-05T02:32:33.040Z,197.99
2023-05-05T02:33:33.278Z,197.48
2023-05-05T02:34:33.103Z,199.47
2023-05-05T02:35:33.194Z,200.97
2023-05-05T02:36:33.256Z,202.03
2023-05-05T02:37:33.192Z,203.19
2023-05-05T02:38:33.228Z,204.05
2023-05-05T02:39:33.283Z,205.25
2023-05-05T02:40:33.308Z,205.22
2023-05-05T02:41:33.432Z,206.26
2023-05-05T02:42:33.611Z,203.65
2023-05-05T02:43:33.523Z,204.27
2023-05-05T02:44:33.521Z,203.15
2023-05-05T02:45:35.522Z,198.14
2023-05-05T02:46:33.650Z,195.90
2023-05-05T02:47:33.645Z,194.56
2023-05-05T02:48:34.039Z,193.64
2023-05-05T02:49:40.745Z,193.02
2023-05-05T02:50:33.618Z,193.05
2023-05-05T02:51:33.782Z,193.19
2023-05-05T02:52:33.676Z,193.62
2023-05-05T02:53:33.686Z,193.84
2023-05-05T02:54:33.769Z,195.92
2023-05-05T02:55:33.781Z,196.12
2023-05-05T02:56:33.806Z,196.48
2023-05-05T02:57:33.825Z,195.77
2023-05-05T02:58:33.857Z,194.82
2023-05-05T02:59:33.830Z,194.05
2023-05-05T03:00:33.892Z,194.23
2023-05-05T03:01:33.956Z,193.09
2023-05-05T03:02:34.016Z,193.34
2023-05-05T03:03:34.093Z,193.80
2023-05-05T03:04:34.017Z,193.59
2023-05-05T03:05:34.109Z,192.68
2023-05-05T03:06:34.114Z,191.39
2023-05-05T03:07:34.116Z,191.45
2023-05-05T03:08:35.012Z,190.23
2023-05-05T03:09:34.255Z,190.08
2023-05-05T03:10:34.215Z,190.26
2023-05-05T03:11:34.228Z,189.64
2023-05-05T03:12:34.312Z,189.84
2023-05-05T03:13:34.565Z,189.12
2023-05-05T03:14:34.342Z,189.96
2023-05-05T03:15:34.364Z,190.06
2023-05-05T03:16:34.478Z,189.00
2023-05-05T03:17:34.441Z,188.27
2023-05-05T03:18:34.513Z,187.86
2023-05-05T03:19:35.024Z,187.74
2023-05-05T03:20:34.573Z,189.15
2023-05-05T03:21:34.622Z,189.87
2023-05-05T03:22:34.776Z,190.14
2023-05-05T03:23:34.865Z,189.38
2023-05-05T03:24:34.938Z,190.79
2023-05-05T03:25:34.930Z,193.97
2023-05-05T03:26:36.536Z,194.63
2023-05-05T03:27:35.036Z,194.36
2023-05-05T03:28:35.076Z,193.92
2023-05-05T03:29:35.206Z,192.73
2023-05-05T03:30:36.136Z,192.18
2023-05-05T03:31:37.082Z,191.76
2023-05-05T03:32:36.046Z,190.34
2023-05-05T03:33:35.389Z,187.64
2023-05-05T03:34:36.685Z,186.59
2023-05-05T03:35:35.593Z,186.86
2023-05-05T03:36:35.664Z,185.71
2023-05-05T03:37:35.736Z,185.61
2023-05-05T03:38:35.838Z,185.32
2023-05-05T03:39:35.920Z,186.08
2023-05-05T03:40:43.692Z,185.86
2023-05-05T03:41:37.021Z,186.12
2023-05-05T03:42:37.207Z,186.49
2023-05-05T03:43:36.078Z,187.05
2023-05-05T03:44:36.117Z,187.70
2023-05-05T03:45:36.206Z,188.98
2023-05-05T03:46:36.241Z,188.62
2023-05-05T03:47:36.351Z,188.04
2023-05-05T03:48:36.299Z,188.74
2023-05-05T03:49:36.345Z,188.78
2023-05-05T03:50:36.402Z,188.78
2023-05-05T03:51:37.186Z,188.50
2023-05-05T03:52:36.547Z,188.65
2023-05-05T03:53:36.514Z,188.71
2023-05-05T03:54:36.549Z,190.19
2023-05-05T03:55:37.635Z,190.48
2023-05-05T03:56:36.637Z,190.06
2023-05-05T03:57:36.721Z,190.55
2023-05-05T03:58:36.785Z,192.01
2023-05-05T03:59:36.817Z,192.30
2023-05-05T04:00:36.883Z,195.58
2023-05-05T04:01:36.935Z,196.01
2023-05-05T04:02:37.008Z,198.87
2023-05-05T04:03:37.058Z,204.53
2023-05-05T04:04:37.099Z,211.59
2023-05-05T04:05:37.014Z,212.00
2023-05-05T04:06:37.009Z,208.45
2023-05-05T04:07:37.039Z,205.84
2023-05-05T04:08:37.159Z,205.78
2023-05-05T04:09:37.114Z,210.69
2023-05-05T04:10:37.128Z,210.68
2023-05-05T04:11:37.276Z,212.14
2023-05-05T04:12:37.251Z,213.87
2023-05-05T04:13:37.233Z,215.36
2023-05-05T04:14:37.258Z,215.94
2023-05-05T04:15:37.349Z,218.11
2023-05-05T04:16:37.518Z,217.37
2023-05-05T04:17:37.507Z,216.06
2023-05-05T04:18:37.545Z,217.24
2023-05-05T04:19:38.535Z,213.52
2023-05-05T04:20:37.682Z,212.62
2023-05-05T04:21:37.699Z,214.64
2023-05-05T04:22:37.730Z,215.85
2023-05-05T04:23:37.799Z,214.11
2023-05-05T04:24:37.830Z,214.96
2023-05-05T04:25:37.870Z,215.70
2023-05-05T04:26:37.904Z,218.57
2023-05-05T04:27:38.084Z,221.50
2023-05-05T04:28:38.030Z,222.79
2023-05-05T04:29:38.103Z,217.82
2023-05-05T04:30:38.214Z,211.41
2023-05-05T04:31:38.370Z,204.01
2023-05-05T04:32:38.385Z,198.40
2023-05-05T04:33:38.369Z,199.34
2023-05-05T04:34:38.391Z,197.97
2023-05-05T04:35:38.396Z,197.57
2023-05-05T04:36:38.492Z,199.46
2023-05-05T04:37:38.502Z,199.59
2023-05-05T04:38:38.559Z,198.21
2023-05-05T04:39:38.614Z,198.77
2023-05-05T04:40:38.685Z,199.06
2023-05-05T04:41:38.811Z,198.83
2023-05-05T04:42:38.823Z,199.85
2023-05-05T04:43:38.876Z,201.56
2023-05-05T04:44:38.929Z,207.49
2023-05-05T04:45:38.889Z,210.16
2023-05-05T04:46:38.968Z,203.67
2023-05-05T04:47:39.077Z,204.84
2023-05-05T04:48:39.571Z,201.38
2023-05-05T04:49:39.133Z,199.37
2023-05-05T04:50:39.208Z,204.58
2023-05-05T04:51:39.280Z,208.56
2023-05-05T04:52:39.355Z,214.79
2023-05-05T04:53:39.358Z,217.10
2023-05-05T04:54:39.423Z,212.61
2023-05-05T04:55:39.422Z,213.11
2023-05-05T04:56:39.458Z,210.82
2023-05-05T04:57:39.497Z,212.57
2023-05-05T04:58:39.584Z,206.96
2023-05-05T04:59:39.703Z,206.78
2023-05-05T05:00:39.669Z,205.02
2023-05-05T05:01:39.744Z,201.65
2023-05-05T05:02:39.850Z,200.56
2023-05-05T05:03:39.846Z,207.44
2023-05-05T05:04:39.842Z,210.33
2023-05-05T05:05:39.879Z,208.62
2023-05-05T05:06:39.840Z,202.44
2023-05-05T05:07:39.921Z,198.90
2023-05-05T05:08:39.880Z,196.41
2023-05-05T05:09:39.847Z,198.04
2023-05-05T05:10:39.862Z,201.56
2023-05-05T05:11:39.826Z,203.31
2023-05-05T05:12:39.820Z,203.38
2023-05-05T05:13:39.824Z,204.59
2023-05-05T05:14:39.843Z,206.88
2023-05-05T05:15:39.790Z,206.09
2023-05-05T05:16:39.838Z,206.75
2023-05-05T05:17:39.835Z,201.80
2023-05-05T05:18:39.794Z,196.78
2023-05-05T05:19:39.799Z,194.65
2023-05-05T05:20:39.797Z,226.68
2023-05-05T05:21:39.777Z,239.88
2023-05-05T05:22:39.854Z,252.08
2023-05-05T05:23:40.066Z,262.23
2023-05-05T05:24:39.816Z,259.11
2023-05-05T05:25:39.735Z,247.97
2023-05-05T05:26:39.807Z,248.55
2023-05-05T05:27:39.809Z,247.66
2023-05-05T05:28:39.848Z,251.45
2023-05-05T05:29:40.089Z,249.26
2023-05-05T05:30:40.698Z,254.45
2023-05-05T05:31:39.932Z,257.62
2023-05-05T05:32:40.087Z,260.17
2023-05-05T05:33:39.938Z,255.48
2023-05-05T05:34:39.906Z,262.85
2023-05-05T05:35:40.544Z,265.74
2023-05-05T05:36:39.957Z,257.59
2023-05-05T05:37:40.012Z,249.80
2023-05-05T05:38:40.031Z,250.92
2023-05-05T05:39:41.926Z,243.49
2023-05-05T05:40:39.964Z,239.65
2023-05-05T05:41:40.550Z,236.17
2023-05-05T05:42:39.948Z,231.99
2023-05-05T05:43:39.901Z,233.33
2023-05-05T05:44:39.933Z,232.01
2023-05-05T05:45:39.884Z,229.09
2023-05-05T05:46:40.006Z,219.47
2023-05-05T05:47:39.880Z,210.25
2023-05-05T05:48:39.911Z,201.76
2023-05-05T05:49:39.816Z,194.97
2023-05-05T05:50:39.812Z,188.76
2023-05-05T05:51:39.814Z,181.84
2023-05-05T05:52:39.835Z,182.96
2023-05-05T05:53:39.794Z,186.14
2023-05-05T05:54:39.863Z,184.84
2023-05-05T05:55:39.786Z,185.37
2023-05-05T05:56:39.796Z,182.33
2023-05-05T05:57:39.841Z,179.94
2023-05-05T05:58:41.978Z,179.41
2023-05-05T05:59:39.872Z,184.56
2023-05-05T06:00:39.931Z,192.44
2023-05-05T06:01:40.002Z,200.13
2023-05-05T06:02:40.072Z,212.79
2023-05-05T06:03:40.003Z,215.87
2023-05-05T06:04:39.960Z,212.99
2023-05-05T06:05:39.986Z,215.58
2023-05-05T06:06:39.935Z,217.40
2023-05-05T06:07:39.897Z,218.71
2023-05-05T06:08:39.870Z,221.23
2023-05-05T06:09:39.858Z,224.34
2023-05-05T06:10:39.858Z,226.64
2023-05-05T06:11:39.889Z,230.14
2023-05-05T06:12:39.803Z,232.42
2023-05-05T06:13:39.819Z,235.71
2023-05-05T06:14:39.814Z,238.86
2023-05-05T06:15:39.889Z,237.56
2023-05-05T06:16:39.864Z,236.99
2023-05-05T06:17:39.951Z,235.72
2023-05-05T06:18:40.060Z,235.53
2023-05-05T06:19:39.977Z,237.62
2023-05-05T06:20:40.004Z,235.04
2023-05-05T06:21:40.001Z,235.23
2023-05-05T06:22:39.972Z,236.58
2023-05-05T06:23:40.069Z,240.17
2023-05-05T06:24:39.980Z,244.86
2023-05-05T06:25:39.935Z,246.90
2023-05-05T06:26:40.021Z,245.31
2023-05-05T06:27:39.913Z,242.48
2023-05-05T06:28:39.877Z,241.02
2023-05-05T06:29:39.863Z,241.77
2023-05-05T06:30:39.831Z,235.09
2023-05-05T06:31:39.826Z,224.64
2023-05-05T06:32:39.774Z,213.69
2023-05-05T06:33:39.730Z,209.02
2023-05-05T06:34:39.660Z,208.17
2023-05-05T06:35:40.585Z,207.40
2023-05-05T06:36:39.654Z,199.12
2023-05-05T06:37:40.574Z,191.96
2023-05-05T06:38:39.627Z,190.77
2023-05-05T06:39:39.641Z,190.55
2023-05-05T06:40:40.085Z,188.87
2023-05-05T06:41:39.625Z,186.23
2023-05-05T06:42:39.611Z,183.18
2023-05-05T06:43:39.577Z,185.90
2023-05-05T06:44:39.589Z,190.39
2023-05-05T06:45:39.488Z,192.44
2023-05-05T06:46:40.221Z,186.74
2023-05-05T06:47:40.609Z,184.49
2023-05-05T06:48:39.443Z,182.40
2023-05-05T06:49:39.421Z,176.55
2023-05-05T06:50:39.336Z,175.09
2023-05-05T06:51:41.056Z,174.79
2023-05-05T06:52:39.265Z,172.85
2023-05-05T06:53:39.306Z,174.36
2023-05-05T06:54:39.117Z,175.62
2023-05-05T06:55:39.067Z,178.57
2023-05-05T06:56:39.038Z,175.21
2023-05-05T06:57:38.947Z,175.15
2023-05-05T06:58:38.981Z,178.39
2023-05-05T06:59:38.881Z,181.97
2023-05-05T07:00:38.865Z,184.90
2023-05-05T07:01:38.832Z,181.72
2023-05-05T07:02:38.982Z,178.98
2023-05-05T07:03:38.721Z,176.70
2023-05-05T07:04:38.623Z,175.08
2023-05-05T07:05:38.597Z,169.98
2023-05-05T07:06:38.573Z,167.26
2023-05-05T07:07:38.492Z,166.31
2023-05-05T07:08:38.477Z,168.35
2023-05-05T07:09:38.461Z,172.38
2023-05-05T07:10:38.372Z,169.99
2023-05-05T07:11:38.515Z,168.49
2023-05-05T07:12:38.261Z,164.27
2023-05-05T07:13:38.193Z,161.89
2023-05-05T07:14:38.164Z,159.91
2023-05-05T07:15:38.082Z,163.67
2023-05-05T07:16:38.124Z,167.39
2023-05-05T07:17:37.985Z,164.57
2023-05-05T07:18:38.169Z,166.09
2023-05-05T07:19:37.826Z,160.33
2023-05-05T07:20:37.773Z,162.35
2023-05-05T07:21:37.723Z,161.95
2023-05-05T07:22:37.803Z,155.20
2023-05-05T07:23:37.551Z,154.37
2023-05-05T07:24:37.510Z,155.17
2023-05-05T07:25:37.478Z,155.42
2023-05-05T07:26:38.131Z,152.79
2023-05-05T07:27:37.312Z,150.12
2023-05-05T07:28:37.308Z,155.29
2023-05-05T07:29:37.261Z,166.25
2023-05-05T07:30:37.162Z,158.96
2023-05-05T07:31:37.139Z,149.32
2023-05-05T07:32:37.157Z,153.77
2023-05-05T07:33:37.126Z,156.35
2023-05-05T07:34:37.465Z,156.64
2023-05-05T07:35:37.628Z,171.81
2023-05-05T07:36:36.986Z,148.91
2023-05-05T07:37:36.997Z,135.14
2023-05-05T07:38:37.114Z,121.04
2023-05-05T07:39:37.495Z,121.68
2023-05-05T07:40:36.731Z,118.90
2023-05-05T07:41:36.771Z,103.56
2023-05-05T07:42:36.525Z,91.58
2023-05-05T07:43:36.460Z,86.25
2023-05-05T07:44:36.474Z,82.41
2023-05-05T07:45:36.320Z,80.87
2023-05-05T07:46:37.139Z,78.84
2023-05-05T07:47:36.091Z,83.74
2023-05-05T07:48:38.583Z,86.80
2023-05-05T07:49:36.134Z,84.90
2023-05-05T07:50:36.621Z,83.20
2023-05-05T07:51:35.964Z,88.46
2023-05-05T07:52:44.963Z,97.81
2023-05-05T07:53:36.796Z,95.47
2023-05-05T07:54:35.719Z,93.33
2023-05-05T07:55:35.595Z,84.31
2023-05-05T07:56:35.570Z,88.50
2023-05-05T07:57:36.449Z,88.53
2023-05-05T07:58:35.541Z,90.74
2023-05-05T07:59:35.165Z,79.13
2023-05-05T08:00:35.059Z,79.34
2023-05-05T08:01:34.933Z,81.83
2023-05-05T08:02:34.957Z,77.38
2023-05-05T08:03:34.983Z,80.38
2023-05-05T08:04:35.758Z,75.22
2023-05-05T08:05:34.552Z,79.73
2023-05-05T08:06:34.466Z,72.13
2023-05-05T08:07:34.324Z,67.59
2023-05-05T08:08:34.191Z,67.91
2023-05-05T08:09:34.054Z,69.12
2023-05-05T08:10:33.982Z,70.48
2023-05-05T08:11:33.897Z,65.78
2023-05-05T08:12:33.830Z,76.69
2023-05-05T08:13:34.899Z,96.84
2023-05-05T08:14:34.157Z,93.75
2023-05-05T08:15:33.400Z,83.92
2023-05-05T08:16:33.328Z,89.91
2023-05-05T08:17:33.222Z,101.81
2023-05-05T08:18:33.062Z,104.94
2023-05-05T08:19:32.959Z,102.17
2023-05-05T08:20:32.830Z,106.62
2023-05-05T08:21:33.608Z,110.31
2023-05-05T08:22:33.107Z,117.65
2023-05-05T08:23:32.677Z,115.89
2023-05-05T08:24:32.515Z,116.70
2023-05-05T08:25:32.269Z,118.31
2023-05-05T08:26:32.176Z,132.66
2023-05-05T08:27:32.242Z,132.47
2023-05-05T08:28:32.179Z,135.29
2023-05-05T08:29:32.163Z,132.94
2023-05-05T08:30:32.008Z,130.35
2023-05-05T08:31:31.829Z,117.78
2023-05-05T08:32:31.687Z,114.83
2023-05-05T08:33:31.602Z,110.74
2023-05-05T08:34:31.558Z,107.84
2023-05-05T08:35:31.400Z,98.76
2023-05-05T08:36:31.293Z,95.42
2023-05-05T08:37:31.168Z,93.81
2023-05-05T08:38:31.064Z,93.23
2023-05-05T08:39:31.207Z,93.28
2023-05-05T08:40:30.893Z,88.90
2023-05-05T08:41:30.700Z,95.46
2023-05-05T08:42:37.772Z,99.02
2023-05-05T08:43:31.471Z,99.05
2023-05-05T08:44:30.386Z,100.70
2023-05-05T08:45:30.646Z,92.02
2023-05-05T08:46:30.137Z,99.30
2023-05-05T08:47:30.020Z,91.93
2023-05-05T08:48:29.855Z,90.36
2023-05-05T08:49:30.116Z,88.92
2023-05-05T08:50:29.670Z,91.73
2023-05-05T08:51:29.472Z,89.69
2023-05-05T08:52:29.377Z,65.69
2023-05-05T08:53:29.206Z,55.29
2023-05-05T08:54:29.168Z,58.14
2023-05-05T08:55:28.969Z,54.96
2023-05-05T08:56:28.839Z,54.34
2023-05-05T08:57:28.676Z,55.86
2023-05-05T08:58:29.364Z,48.48
2023-05-05T08:59:28.710Z,41.89
2023-05-05T09:00:28.469Z,38.90
2023-05-05T09:01:29.226Z,44.23
2023-05-05T09:02:28.128Z,44.12
2023-05-05T09:03:27.980Z,44.36
2023-05-05T09:04:27.889Z,45.19
2023-05-05T09:05:27.696Z,46.49
2023-05-05T09:06:27.613Z,45.96
2023-05-05T09:07:27.453Z,40.39
2023-05-05T09:08:27.323Z,37.25
2023-05-05T09:09:27.319Z,35.40
2023-05-05T09:10:27.787Z,35.17
2023-05-05T09:11:26.978Z,34.10
2023-05-05T09:12:27.016Z,30.19
2023-05-05T09:13:27.644Z,30.77
2023-05-05T09:14:26.746Z,27.11
2023-05-05T09:15:26.772Z,27.23
2023-05-05T09:16:26.441Z,27.85
2023-05-05T09:17:26.383Z,29.18
2023-05-05T09:18:26.166Z,32.93
2023-05-05T09:19:26.046Z,38.43
2023-05-05T09:20:25.935Z,42.98
2023-05-05T09:21:25.853Z,42.98
2023-05-05T09:22:25.725Z,46.62
2023-05-05T09:23:25.702Z,43.14
2023-05-05T09:24:25.682Z,42.91
2023-05-05T09:25:25.403Z,44.06
2023-05-05T09:26:25.244Z,47.74
2023-05-05T09:27:25.138Z,53.49
2023-05-05T09:28:25.061Z,53.02
2023-05-05T09:29:25.374Z,46.76
2023-05-05T09:30:24.875Z,49.08
2023-05-05T09:31:24.828Z,43.03
2023-05-05T09:32:24.822Z,42.39
2023-05-05T09:33:24.661Z,32.26
2023-05-05T09:34:24.528Z,32.86
2023-05-05T09:35:24.566Z,31.19
2023-05-05T09:36:24.448Z,28.09
2023-05-05T09:37:24.333Z,21.85
2023-05-05T09:38:26.355Z,27.20
2023-05-05T09:39:24.364Z,34.36
2023-05-05T09:40:24.041Z,37.65
2023-05-05T09:41:23.858Z,35.24
2023-05-05T09:42:23.923Z,38.40
2023-05-05T09:43:24.134Z,40.50
2023-05-05T09:44:23.584Z,37.20
2023-05-05T09:45:24.159Z,35.00
2023-05-05T09:46:23.616Z,30.26
2023-05-05T09:47:29.593Z,32.00
2023-05-05T09:48:24.463Z,28.00
2023-05-05T09:49:23.329Z,23.78
2023-05-05T09:50:23.093Z,25.74
2023-05-05T09:51:22.998Z,26.81
2023-05-05T09:52:22.910Z,22.75
2023-05-05T09:53:22.749Z,30.66
2023-05-05T09:54:22.655Z,25.91
2023-05-05T09:55:23.128Z,26.69
2023-05-05T09:56:22.395Z,39.69
2023-05-05T09:57:25.177Z,34.38
2023-05-05T09:58:22.287Z,28.61
2023-05-05T09:59:22.190Z,25.12
2023-05-05T10:00:21.976Z,24.42
2023-05-05T10:01:21.846Z,24.46
2023-05-05T10:02:21.682Z,22.62
2023-05-05T10:03:22.160Z,25.95
2023-05-05T10:04:21.498Z,28.35
2023-05-05T10:05:21.460Z,30.33
2023-05-05T10:06:21.228Z,29.74
2023-05-05T10:07:21.114Z,24.93
2023-05-05T10:08:21.085Z,30.07
2023-05-05T10:09:22.048Z,33.33
2023-05-05T10:10:20.738Z,36.44
2023-05-05T10:11:20.604Z,30.81
2023-05-05T10:12:20.497Z,27.37
2023-05-05T10:13:20.472Z,21.48
2023-05-05T10:14:20.227Z,21.55
2023-05-05T10:15:20.433Z,20.60
2023-05-05T10:16:20.249Z,21.40
2023-05-05T10:17:20.738Z,21.89
2023-05-05T10:18:19.785Z,16.24
2023-05-05T10:19:20.176Z,17.47
2023-05-05T10:20:19.493Z,20.04
2023-05-05T10:21:20.236Z,24.30
2023-05-05T10:22:19.449Z,26.10
2023-05-05T10:23:19.043Z,31.93
2023-05-05T10:24:19.108Z,38.31
2023-05-05T10:25:18.799Z,38.55
2023-05-05T10:26:18.624Z,39.81
2023-05-05T10:27:18.665Z,38.74
2023-05-05T10:28:18.370Z,38.58
2023-05-05T10:29:18.242Z,44.21
2023-05-05T10:30:18.133Z,44.30
2023-05-05T10:31:25.748Z,35.40
2023-05-05T10:32:47.037Z,29.39
2023-05-05T10:33:30.373Z,35.43
2023-05-05T10:34:18.595Z,35.49
2023-05-05T10:35:17.436Z,35.63
2023-05-05T10:36:17.255Z,35.72
2023-05-05T10:37:17.716Z,35.14
2023-05-05T10:38:16.955Z,35.08
2023-05-05T10:39:17.764Z,42.34
2023-05-05T10:40:17.218Z,48.22
2023-05-05T10:41:16.526Z,43.86
2023-05-05T10:42:19.153Z,40.94
2023-05-05T10:43:16.289Z,36.85
2023-05-05T10:44:16.194Z,40.46
2023-05-05T10:45:16.294Z,41.88
2023-05-05T10:46:16.956Z,46.30
2023-05-05T10:47:16.165Z,57.16
2023-05-05T10:48:15.610Z,56.52
2023-05-05T10:49:16.458Z,45.12
2023-05-05T10:50:15.340Z,42.46
2023-05-05T10:51:21.145Z,40.62
2023-05-05T10:52:15.832Z,39.14
2023-05-05T10:53:14.733Z,40.77
2023-05-05T10:54:14.618Z,39.49
2023-05-05T10:55:14.389Z,32.66
2023-05-05T10:56:15.178Z,36.26
2023-05-05T10:57:14.113Z,33.65
2023-05-05T10:58:13.933Z,28.31
2023-05-05T10:59:14.661Z,28.54
2023-05-05T11:00:15.104Z,26.21
2023-05-05T11:01:13.589Z,25.47
2023-05-05T11:02:14.156Z,30.19
2023-05-05T11:03:13.366Z,31.31
2023-05-05T11:04:13.155Z,26.87
2023-05-05T11:05:12.981Z,28.61
2023-05-05T11:06:12.834Z,31.98
2023-05-05T11:07:15.000Z,35.24
2023-05-05T11:08:12.837Z,33.27
2023-05-05T11:09:12.566Z,33.71
2023-05-05T11:10:12.332Z,35.10
2023-05-05T11:11:12.141Z,46.13
2023-05-05T11:12:11.997Z,50.70
2023-05-05T11:13:11.872Z,56.75
2023-05-05T11:14:12.164Z,72.48
2023-05-05T11:15:11.530Z,72.66
2023-05-05T11:16:11.408Z,73.29
2023-05-05T11:17:11.249Z,65.24
2023-05-05T11:18:11.143Z,59.69
2023-05-05T11:19:11.706Z,59.03
2023-05-05T11:20:10.939Z,65.90
2023-05-05T11:21:10.683Z,71.32
2023-05-05T11:22:10.502Z,64.54
2023-05-05T11:23:10.370Z,64.86
2023-05-05T11:24:10.193Z,64.98
2023-05-05T11:25:10.060Z,64.93
2023-05-05T11:26:09.891Z,58.18
2023-05-05T11:27:09.714Z,62.33
2023-05-05T11:28:09.561Z,82.65
2023-05-05T11:29:09.448Z,72.91
2023-05-05T11:30:10.726Z,73.90
2023-05-05T11:31:09.105Z,82.53
2023-05-05T11:32:09.037Z,100.27
2023-05-05T11:33:08.795Z,108.82
2023-05-05T11:34:08.604Z,104.44
2023-05-05T11:35:08.714Z,76.79
2023-05-05T11:36:08.297Z,64.04
2023-05-05T11:37:08.157Z,64.01
2023-05-05T11:38:08.010Z,62.81
2023-05-05T11:39:07.868Z,71.51
2023-05-05T11:40:07.905Z,58.56
2023-05-05T11:41:07.613Z,60.02
2023-05-05T11:42:10.737Z,66.12
2023-05-05T11:43:07.249Z,66.19
2023-05-05T11:44:07.027Z,62.99
2023-05-05T11:45:06.855Z,51.24
2023-05-05T11:46:06.694Z,53.83
2023-05-05T11:47:06.526Z,59.54
2023-05-05T11:48:07.000Z,70.81
2023-05-05T11:49:06.176Z,67.33
2023-05-05T11:50:06.167Z,66.50
2023-05-05T11:51:05.819Z,70.59
2023-05-05T11:52:05.627Z,73.58
2023-05-05T11:53:05.455Z,74.16
2023-05-05T11:54:05.326Z,61.68
2023-05-05T11:55:05.193Z,91.57
2023-05-05T11:56:05.045Z,124.07
2023-05-05T11:57:05.069Z,75.03
2023-05-05T11:58:04.788Z,59.35
2023-05-05T11:59:04.709Z,56.71
2023-05-05T12:00:04.586Z,61.21
2023-05-05T12:01:04.481Z,64.89
2023-05-05T12:02:04.370Z,59.80
2023-05-05T12:03:04.354Z,52.97
2023-05-05T12:04:04.253Z,48.46
2023-05-05T12:05:04.052Z,51.86
2023-05-05T12:06:03.876Z,58.10
2023-05-05T12:07:03.710Z,60.94
2023-05-05T12:08:03.571Z,56.78
2023-05-05T12:09:03.516Z,61.06
2023-05-05T12:10:03.372Z,60.50
2023-05-05T12:11:03.259Z,66.26
2023-05-05T12:12:03.077Z,70.28
2023-05-05T12:13:02.982Z,72.65
2023-05-05T12:14:02.796Z,82.32
2023-05-05T12:15:02.664Z,78.19
2023-05-05T12:16:02.541Z,62.61
2023-05-05T12:17:02.348Z,65.91
2023-05-05T12:18:03.328Z,67.51
2023-05-05T12:19:02.166Z,69.06
2023-05-05T12:20:01.985Z,74.55
2023-05-05T12:21:01.991Z,92.18
2023-05-05T12:22:01.649Z,80.34
2023-05-05T12:23:01.521Z,84.61
2023-05-05T12:24:01.307Z,86.74
2023-05-05T12:25:01.144Z,85.80
2023-05-05T12:26:01.047Z,90.31
2023-05-05T12:27:00.778Z,104.36
2023-05-05T12:28:00.602Z,80.44
2023-05-05T12:29:00.522Z,69.37
2023-05-05T12:30:00.229Z,73.95
2023-05-05T12:31:00.227Z,94.48
2023-05-05T12:31:59.910Z,92.80
2023-05-05T12:32:59.788Z,93.19
2023-05-05T12:33:59.535Z,84.10
2023-05-05T12:34:59.380Z,73.99
2023-05-05T12:36:01.248Z,78.31
2023-05-05T12:36:59.203Z,71.79